createdAt,value
2018-09-27T00:00:27.775Z,6.97
2018-09-27T00:02:02.979Z,6.95
2018-09-27T00:03:38.659Z,7.02
2018-09-27T00:05:13.831Z,7.00
2018-09-27T00:06:49.709Z,7.03
2018-09-27T00:08:26.326Z,6.97
2018-09-27T00:10:01.865Z,6.92
2018-09-27T00:11:38.026Z,7.00
2018-09-27T00:13:13.297Z,7.00
2018-09-27T00:14:49.521Z,7.04
2018-09-27T00:16:25.289Z,6.95
2018-09-27T00:18:00.777Z,6.99
2018-09-27T00:19:38.779Z,7.03
2018-09-27T00:21:14.715Z,7.02
2018-09-27T00:22:49.941Z,7.10
2018-09-27T00:24:25.754Z,7.16
2018-09-27T00:26:01.249Z,7.13
2018-09-27T00:27:36.597Z,7.16
2018-09-27T00:29:11.863Z,7.17
2018-09-27T00:30:48.702Z,7.22
2018-09-27T00:32:24.938Z,7.28
2018-09-27T00:34:00.252Z,7.38
2018-09-27T00:35:35.588Z,7.34
2018-09-27T00:37:12.164Z,7.40
2018-09-27T00:38:48.782Z,7.32
2018-09-27T00:40:24.389Z,7.26
2018-09-27T00:41:59.783Z,7.23
2018-09-27T00:43:35.063Z,7.16
2018-09-27T00:45:10.378Z,7.08
2018-09-27T00:46:45.686Z,7.11
2018-09-27T00:48:21.680Z,7.09
2018-09-27T00:49:57.281Z,7.12
2018-09-27T00:51:33.223Z,7.06
2018-09-27T00:53:08.764Z,7.03
2018-09-27T00:54:44.353Z,7.19
2018-09-27T00:56:19.992Z,7.22
2018-09-27T00:57:56.721Z,7.24
2018-09-27T00:59:31.873Z,7.18
2018-09-27T01:01:07.371Z,7.10
2018-09-27T01:02:43.989Z,7.14
2018-09-27T01:04:19.645Z,7.14
2018-09-27T01:05:55.064Z,7.11
2018-09-27T01:07:30.300Z,6.96
2018-09-27T01:09:06.742Z,6.99
2018-09-27T01:10:41.957Z,7.05
2018-09-27T01:12:17.606Z,6.93
2018-09-27T01:13:52.624Z,6.85
2018-09-27T01:15:27.858Z,6.91
2018-09-27T01:17:17.061Z,6.92
2018-09-27T01:18:52.789Z,6.84
2018-09-27T01:20:28.511Z,6.79
2018-09-27T01:22:03.755Z,6.87
2018-09-27T01:23:38.963Z,6.83
2018-09-27T01:25:14.269Z,6.76
2018-09-27T01:26:49.274Z,6.63
2018-09-27T01:28:24.889Z,6.57
2018-09-27T01:30:00.070Z,6.58
2018-09-27T01:31:35.295Z,6.57
2018-09-27T01:33:10.731Z,6.54
2018-09-27T01:34:46.121Z,6.58
2018-09-27T01:36:22.019Z,6.54
2018-09-27T01:37:57.214Z,6.47
2018-09-27T01:39:33.254Z,6.38
2018-09-27T01:41:09.144Z,6.32
2018-09-27T01:42:44.478Z,6.40
2018-09-27T01:44:20.190Z,6.41
2018-09-27T01:45:55.333Z,6.50
2018-09-27T01:47:30.688Z,6.38
2018-09-27T01:49:06.110Z,6.32
2018-09-27T01:50:41.823Z,6.28
2018-09-27T01:52:17.438Z,6.27
2018-09-27T01:53:52.831Z,6.26
2018-09-27T01:55:28.189Z,6.24
2018-09-27T01:57:03.314Z,6.21
2018-09-27T01:58:38.878Z,6.23
2018-09-27T02:00:15.773Z,6.34
2018-09-27T02:01:51.165Z,6.40
2018-09-27T02:03:26.344Z,6.43
2018-09-27T02:05:01.637Z,6.46
2018-09-27T02:06:37.037Z,6.40
2018-09-27T02:08:12.696Z,6.40
2018-09-27T02:09:48.062Z,6.39
2018-09-27T02:11:23.116Z,6.43
2018-09-27T02:12:58.389Z,6.34
2018-09-27T02:14:33.797Z,6.26
2018-09-27T02:16:09.449Z,6.23
2018-09-27T02:17:44.690Z,6.21
2018-09-27T02:19:20.123Z,6.26
2018-09-27T02:20:55.635Z,6.38
2018-09-27T02:22:30.944Z,6.44
2018-09-27T02:24:07.208Z,6.51
2018-09-27T02:25:42.547Z,6.55
2018-09-27T02:27:17.874Z,6.54
2018-09-27T02:28:55.330Z,6.46
2018-09-27T02:30:30.633Z,6.41
2018-09-27T02:32:06.031Z,6.44
2018-09-27T02:33:41.345Z,6.44
2018-09-27T02:35:16.350Z,6.47
2018-09-27T02:36:52.035Z,6.44
2018-09-27T02:38:27.642Z,6.41
2018-09-27T02:40:04.376Z,6.38
2018-09-27T02:41:41.183Z,6.30
2018-09-27T02:43:16.342Z,6.36
2018-09-27T02:44:51.652Z,6.35
2018-09-27T02:46:28.340Z,6.45
2018-09-27T02:48:04.347Z,6.43
2018-09-27T02:49:40.326Z,6.42
2018-09-27T02:51:15.529Z,6.36
2018-09-27T02:52:50.564Z,6.39
2018-09-27T02:54:26.564Z,6.34
2018-09-27T02:56:04.339Z,6.41
2018-09-27T02:57:40.693Z,6.41
2018-09-27T02:59:16.104Z,6.40
2018-09-27T03:00:51.273Z,6.40
2018-09-27T03:02:26.464Z,6.32
2018-09-27T03:04:02.139Z,6.26
2018-09-27T03:05:37.138Z,6.20
2018-09-27T03:07:12.734Z,6.15
2018-09-27T03:08:48.202Z,6.18
2018-09-27T03:10:23.972Z,6.24
2018-09-27T03:11:59.808Z,6.26
2018-09-27T03:13:34.882Z,6.19
2018-09-27T03:15:13.057Z,6.16
2018-09-27T03:16:48.180Z,6.13
2018-09-27T03:18:24.080Z,6.11
2018-09-27T03:20:00.365Z,6.01
2018-09-27T03:21:42.871Z,5.94
2018-09-27T03:23:25.532Z,5.90
2018-09-27T03:25:09.874Z,5.97
2018-09-27T03:26:52.785Z,6.01
2018-09-27T03:28:32.048Z,6.05
2018-09-27T03:30:07.360Z,6.11
2018-09-27T03:31:42.533Z,6.11
2018-09-27T03:33:17.635Z,6.10
2018-09-27T03:34:52.895Z,6.06
2018-09-27T03:36:28.431Z,6.06
2018-09-27T03:38:04.124Z,6.09
2018-09-27T03:39:39.168Z,6.04
2018-09-27T03:41:14.594Z,6.08
2018-09-27T03:42:49.857Z,6.15
2018-09-27T03:44:25.282Z,6.15
2018-09-27T03:46:00.888Z,6.18
2018-09-27T03:47:36.039Z,6.19
2018-09-27T03:49:11.405Z,6.07
2018-09-27T03:50:46.395Z,6.12
2018-09-27T03:52:21.994Z,6.10
2018-09-27T03:53:57.295Z,6.09
2018-09-27T03:55:32.423Z,6.01
2018-09-27T03:57:07.678Z,5.94
2018-09-27T03:58:43.197Z,5.87
2018-09-27T04:00:20.708Z,5.81
2018-09-27T04:01:56.114Z,5.76
2018-09-27T04:03:31.761Z,5.81
2018-09-27T04:05:07.126Z,5.86
2018-09-27T04:06:43.348Z,5.85
2018-09-27T04:08:19.520Z,5.92
2018-09-27T04:09:54.700Z,5.96
2018-09-27T04:11:29.922Z,6.00
2018-09-27T04:13:05.113Z,5.93
2018-09-27T04:14:40.200Z,5.86
2018-09-27T04:16:15.586Z,5.79
2018-09-27T04:17:50.639Z,5.67
2018-09-27T04:19:40.256Z,5.65
2018-09-27T04:21:15.620Z,5.73
2018-09-27T04:22:50.625Z,5.77
2018-09-27T04:24:28.001Z,5.82
2018-09-27T04:26:03.265Z,5.83
2018-09-27T04:27:38.762Z,5.88
2018-09-27T04:29:14.114Z,5.86
2018-09-27T04:30:49.423Z,5.73
2018-09-27T04:32:24.902Z,5.64
2018-09-27T04:33:59.943Z,5.57
2018-09-27T04:35:35.704Z,5.55
2018-09-27T04:37:11.277Z,5.56
2018-09-27T04:38:46.487Z,5.65
2018-09-27T04:40:22.156Z,5.64
2018-09-27T04:41:57.374Z,5.63
2018-09-27T04:43:32.558Z,5.56
2018-09-27T04:45:08.073Z,5.50
2018-09-27T04:46:43.467Z,5.46
2018-09-27T04:48:19.856Z,5.45
2018-09-27T04:49:54.919Z,5.47
2018-09-27T04:51:35.564Z,5.53
2018-09-27T04:53:10.965Z,5.55
2018-09-27T04:54:46.568Z,5.51
2018-09-27T04:56:23.495Z,5.62
2018-09-27T04:57:58.597Z,5.59
2018-09-27T04:59:35.143Z,5.52
2018-09-27T05:01:10.313Z,5.47
2018-09-27T05:02:46.308Z,5.42
2018-09-27T05:04:31.744Z,5.37
2018-09-27T05:06:07.047Z,5.32
2018-09-27T05:07:42.701Z,5.39
2018-09-27T05:09:18.109Z,5.48
2018-09-27T05:10:53.847Z,5.54
2018-09-27T05:12:42.037Z,5.54
2018-09-27T05:14:18.745Z,5.55
2018-09-27T05:15:56.006Z,5.48
2018-09-27T05:17:31.820Z,5.42
2018-09-27T05:19:10.273Z,5.48
2018-09-27T05:20:46.612Z,5.55
2018-09-27T05:22:22.169Z,5.67
2018-09-27T05:23:58.632Z,5.72
2018-09-27T05:25:35.165Z,5.60
2018-09-27T05:28:43.788Z,5.68
2018-09-27T05:30:19.536Z,5.68
2018-09-27T05:31:55.140Z,5.73
2018-09-27T05:33:30.300Z,5.86
2018-09-27T05:35:05.842Z,5.91
2018-09-27T05:36:42.859Z,5.93
2018-09-27T05:38:18.279Z,5.89
2018-09-27T05:39:55.484Z,5.83
2018-09-27T05:41:32.455Z,5.81
2018-09-27T05:43:09.554Z,5.76
2018-09-27T05:44:47.970Z,5.78
2018-09-27T05:46:24.350Z,5.75
2018-09-27T05:47:59.479Z,5.80
2018-09-27T05:49:34.942Z,5.84
2018-09-27T05:51:10.761Z,5.88
2018-09-27T05:52:46.223Z,5.98
2018-09-27T05:54:21.789Z,5.95
2018-09-27T05:55:57.212Z,5.93
2018-09-27T05:57:32.603Z,5.90
2018-09-27T05:59:09.679Z,5.86
2018-09-27T06:00:44.944Z,5.82
2018-09-27T06:02:20.248Z,5.80
2018-09-27T06:03:55.478Z,5.78
2018-09-27T06:05:32.089Z,5.82
2018-09-27T06:07:09.729Z,5.86
2018-09-27T06:08:44.870Z,5.82
2018-09-27T06:10:22.320Z,5.84
2018-09-27T06:11:57.932Z,5.88
2018-09-27T06:13:33.051Z,5.89
2018-09-27T06:15:09.768Z,5.89
2018-09-27T06:16:47.041Z,5.92
2018-09-27T06:18:23.139Z,5.99
2018-09-27T06:19:59.278Z,6.08
2018-09-27T06:21:35.186Z,6.21
2018-09-27T06:23:11.949Z,6.18
2018-09-27T06:24:48.215Z,6.16
2018-09-27T06:26:23.872Z,6.19
2018-09-27T06:28:02.237Z,6.21
2018-09-27T06:29:39.270Z,6.33
2018-09-27T06:31:15.787Z,6.41
2018-09-27T06:32:51.693Z,6.55
2018-09-27T06:34:27.599Z,6.61
2018-09-27T06:36:04.489Z,6.58
2018-09-27T06:37:41.134Z,6.62
2018-09-27T06:39:16.921Z,6.66
2018-09-27T06:40:55.616Z,6.70
2018-09-27T06:42:35.125Z,6.76
2018-09-27T06:44:11.345Z,6.83
2018-09-27T06:45:50.489Z,6.94
2018-09-27T06:47:25.946Z,7.06
2018-09-27T06:49:01.600Z,7.32
2018-09-27T06:50:38.360Z,7.43
2018-09-27T06:52:13.380Z,7.68
2018-09-27T06:53:50.299Z,7.75
2018-09-27T06:55:25.886Z,7.93
2018-09-27T06:57:01.221Z,8.00
2018-09-27T06:58:39.924Z,8.12
2018-09-27T07:00:16.559Z,8.20
2018-09-27T07:01:56.487Z,8.31
2018-09-27T07:03:32.037Z,8.46
2018-09-27T07:05:07.243Z,8.53
2018-09-27T07:06:42.752Z,8.63
2018-09-27T07:08:18.059Z,8.75
2018-09-27T07:09:54.140Z,8.85
2018-09-27T07:11:29.898Z,8.94
2018-09-27T07:13:05.548Z,9.07
2018-09-27T07:14:45.512Z,9.18
2018-09-27T07:16:23.329Z,9.28
2018-09-27T07:17:58.957Z,9.42
2018-09-27T07:19:34.268Z,9.49
2018-09-27T07:21:09.280Z,9.57
2018-09-27T07:22:44.822Z,9.67
2018-09-27T07:24:20.031Z,9.78
2018-09-27T07:25:55.003Z,9.84
2018-09-27T07:27:30.297Z,9.95
2018-09-27T07:29:06.000Z,10.03
2018-09-27T07:30:41.472Z,10.06
2018-09-27T07:32:18.553Z,10.15
2018-09-27T07:33:53.851Z,10.21
2018-09-27T07:35:29.457Z,10.29
2018-09-27T07:37:05.617Z,10.42
2018-09-27T07:38:41.267Z,10.48
2018-09-27T07:40:16.310Z,10.52
2018-09-27T07:41:52.720Z,10.64
2018-09-27T07:43:29.602Z,10.69
2018-09-27T07:45:09.493Z,10.81
2018-09-27T07:46:47.123Z,10.95
2018-09-27T07:48:23.130Z,11.12
2018-09-27T07:49:58.954Z,11.27
2018-09-27T07:51:37.964Z,11.39
2018-09-27T07:53:14.138Z,11.67
2018-09-27T07:54:49.602Z,11.98
2018-09-27T07:56:25.165Z,12.28
2018-09-27T07:58:00.610Z,12.64
2018-09-27T07:59:35.751Z,13.05
2018-09-27T08:01:11.117Z,13.37
2018-09-27T08:02:47.688Z,13.67
2018-09-27T08:04:24.101Z,14.01
2018-09-27T08:06:01.506Z,14.35
2018-09-27T08:07:37.040Z,14.61
2018-09-27T08:09:16.005Z,14.90
2018-09-27T08:10:52.112Z,15.20
2018-09-27T08:12:27.235Z,15.39
2018-09-27T08:14:03.354Z,15.61
2018-09-27T08:15:41.877Z,15.76
2018-09-27T08:17:18.553Z,15.99
2018-09-27T08:18:53.916Z,16.09
2018-09-27T08:20:37.187Z,16.47
2018-09-27T08:22:19.416Z,16.78
2018-09-27T08:23:55.442Z,17.20
2018-09-27T08:25:30.896Z,17.33
2018-09-27T08:27:06.320Z,17.46
2018-09-27T08:28:42.003Z,17.78
2018-09-27T08:30:17.643Z,18.01
2018-09-27T08:31:54.078Z,18.30
2018-09-27T08:33:29.374Z,18.43
2018-09-27T08:35:05.660Z,18.43
2018-09-27T08:36:47.590Z,18.57
2018-09-27T08:38:23.401Z,18.80
2018-09-27T08:39:59.309Z,19.06
2018-09-27T08:41:34.973Z,19.17
2018-09-27T08:43:11.695Z,19.16
2018-09-27T08:44:49.131Z,19.30
2018-09-27T08:46:26.601Z,19.44
2018-09-27T08:48:10.347Z,19.56
2018-09-27T08:49:50.779Z,19.72
2018-09-27T08:51:34.018Z,19.89
2018-09-27T08:53:12.462Z,20.04
2018-09-27T08:54:57.277Z,20.08
2018-09-27T08:56:34.326Z,19.60
2018-09-27T08:58:10.486Z,19.71
2018-09-27T08:59:47.524Z,20.23
2018-09-27T09:01:24.442Z,20.06
2018-09-27T09:03:01.400Z,19.80
2018-09-27T09:04:39.070Z,19.58
2018-09-27T09:06:17.583Z,19.56
2018-09-27T09:07:57.233Z,20.08
2018-09-27T09:09:36.487Z,20.21
2018-09-27T09:11:13.558Z,20.31
2018-09-27T09:12:53.112Z,20.39
2018-09-27T09:14:30.043Z,20.56
2018-09-27T09:16:06.995Z,20.60
2018-09-27T09:17:50.597Z,20.55
2018-09-27T09:19:34.641Z,20.61
2018-09-27T09:21:15.873Z,20.22
2018-09-27T09:22:56.365Z,19.99
2018-09-27T09:24:37.154Z,20.03
2018-09-27T09:26:14.485Z,20.30
2018-09-27T09:27:55.284Z,20.57
2018-09-27T09:29:33.706Z,20.92
2018-09-27T09:31:12.132Z,20.76
2018-09-27T09:32:49.333Z,21.14
2018-09-27T09:34:26.266Z,21.00
2018-09-27T09:36:02.761Z,21.00
2018-09-27T09:37:40.343Z,20.90
2018-09-27T09:39:21.557Z,21.19
2018-09-27T09:40:59.896Z,21.26
2018-09-27T09:42:37.075Z,21.43
2018-09-27T09:44:14.177Z,21.41
2018-09-27T09:45:57.481Z,21.50
2018-09-27T09:47:37.731Z,21.56
2018-09-27T13:07:33.199Z,21.09
2018-09-27T13:09:12.809Z,21.07
2018-09-27T13:10:51.095Z,20.98
2018-09-27T13:12:27.572Z,21.00
2018-09-27T13:14:06.394Z,21.09
2018-09-27T13:15:42.208Z,21.01
2018-09-27T13:17:17.518Z,21.03
2018-09-27T13:18:57.941Z,20.94
2018-09-27T13:20:33.302Z,20.92
2018-09-27T13:22:09.986Z,20.90
2018-09-27T13:23:58.247Z,20.78
2018-09-27T13:25:53.722Z,20.89
2018-09-27T13:27:42.320Z,20.85
2018-09-27T13:29:29.522Z,20.77
2018-09-27T13:31:08.368Z,20.84
2018-09-27T13:32:45.639Z,20.87
2018-09-27T13:34:27.783Z,20.97
2018-09-27T13:36:05.888Z,20.90
2018-09-27T13:37:46.888Z,20.98
2018-09-27T13:39:26.708Z,20.95
2018-09-27T13:41:11.987Z,20.92
2018-09-27T13:42:51.220Z,20.92
2018-09-27T13:44:34.865Z,20.91
2018-09-27T13:46:10.602Z,20.90
2018-09-27T13:47:47.551Z,20.89
2018-09-27T13:49:23.144Z,20.86
2018-09-27T13:50:58.834Z,20.89
2018-09-27T13:52:35.054Z,20.92
2018-09-27T13:54:14.339Z,20.96
2018-09-27T13:55:57.390Z,20.97
2018-09-27T13:57:39.279Z,20.99
2018-09-27T13:59:21.891Z,20.90
2018-09-27T14:01:00.390Z,20.87
2018-09-27T14:02:41.243Z,20.86
2018-09-27T14:04:23.212Z,20.78
2018-09-27T14:06:06.223Z,20.82
2018-09-27T14:07:47.391Z,20.84
2018-09-27T14:09:28.612Z,20.94
2018-09-27T14:11:06.801Z,20.95
2018-09-27T14:12:47.378Z,20.96
2018-09-27T14:14:34.307Z,20.96
2018-09-27T14:16:16.023Z,21.00
2018-09-27T14:17:57.258Z,20.99
2018-09-27T14:21:28.500Z,20.93
2018-09-27T14:23:08.595Z,20.87
2018-09-27T14:24:52.743Z,20.93
2018-09-27T14:26:33.277Z,20.95
2018-09-27T14:28:09.382Z,20.92
2018-09-27T14:29:48.422Z,20.92
2018-09-27T14:31:26.666Z,21.03
2018-09-27T14:33:03.241Z,21.06
2018-09-27T14:34:40.704Z,20.97
2018-09-27T14:36:17.962Z,20.98
2018-09-27T14:37:54.484Z,20.96
2018-09-27T14:39:37.205Z,20.90
2018-09-27T14:41:21.042Z,20.95
2018-09-27T14:43:01.811Z,20.99
2018-09-27T14:44:45.002Z,20.98
2018-09-27T14:46:29.187Z,21.02
2018-09-27T14:48:08.977Z,20.99
2018-09-27T14:49:49.592Z,21.05
2018-09-27T14:51:32.879Z,21.11
2018-09-27T14:53:15.600Z,21.10
2018-09-27T14:54:54.104Z,21.19
2018-09-27T14:56:33.395Z,21.15
2018-09-27T14:58:12.894Z,21.17
2018-09-27T14:59:51.169Z,21.16
2018-09-27T15:01:38.376Z,21.18
2018-09-27T15:03:31.820Z,21.22
2018-09-27T15:05:07.753Z,21.22
2018-09-27T15:06:48.213Z,21.19
2018-09-27T15:08:25.577Z,21.20
2018-09-27T15:10:03.379Z,21.24
2018-09-27T15:11:39.002Z,21.28
2018-09-27T15:13:23.420Z,21.34
2018-09-27T15:15:01.002Z,21.34
2018-09-27T15:16:39.795Z,21.43
2018-09-27T15:18:15.884Z,21.42
2018-09-27T15:20:01.615Z,21.34
2018-09-27T15:21:39.041Z,21.39
2018-09-27T15:23:16.504Z,21.40
2018-09-27T15:24:56.583Z,21.43
2018-09-27T15:26:34.398Z,21.49
2018-09-27T15:28:11.394Z,21.50
2018-09-27T15:29:54.098Z,21.47
2018-09-27T15:31:31.650Z,21.53
2018-09-27T15:33:12.005Z,21.47
2018-09-27T15:34:48.535Z,21.55
2018-09-27T15:36:28.167Z,21.51
2018-09-27T15:38:03.836Z,21.54
2018-09-27T15:39:43.507Z,21.48
2018-09-27T15:41:19.733Z,21.60
2018-09-27T15:43:09.241Z,21.60
2018-09-27T15:46:23.123Z,21.59
2018-09-27T15:47:59.982Z,21.53
2018-09-27T15:49:41.700Z,21.49
2018-09-27T15:51:27.961Z,21.44
2018-09-27T15:53:07.637Z,21.38
2018-09-27T15:54:44.414Z,21.30
2018-09-27T15:56:23.637Z,21.13
2018-09-27T15:58:00.289Z,21.08
2018-09-27T15:59:35.849Z,20.92
2018-09-27T16:01:15.140Z,20.68
2018-09-27T16:02:51.922Z,20.57
2018-09-27T16:04:27.827Z,20.42
2018-09-27T16:06:05.973Z,20.30
2018-09-27T16:07:48.060Z,20.18
2018-09-27T16:09:25.561Z,20.05
2018-09-27T16:11:09.769Z,19.89
2018-09-27T16:12:46.031Z,19.74
2018-09-27T16:14:23.481Z,19.59
2018-09-27T16:16:00.811Z,19.42
2018-09-27T16:17:36.111Z,19.26
2018-09-27T16:19:13.743Z,19.25
2018-09-27T16:20:53.268Z,19.16
2018-09-27T16:22:31.219Z,19.04
2018-09-27T16:24:14.706Z,18.93
2018-09-27T16:25:50.793Z,18.84
2018-09-27T16:27:28.690Z,18.73
2018-09-27T16:29:09.725Z,18.64
2018-09-27T16:30:49.600Z,18.55
2018-09-27T16:32:31.597Z,18.44
2018-09-27T16:34:20.998Z,18.39
2018-09-27T16:35:59.135Z,18.25
2018-09-27T16:37:34.714Z,18.07
2018-09-27T16:39:13.527Z,18.07
2018-09-27T16:40:54.564Z,17.92
2018-09-27T16:42:33.823Z,17.87
2018-09-27T16:44:17.206Z,17.76
2018-09-27T16:45:57.473Z,17.61
2018-09-27T16:47:36.812Z,17.50
2018-09-27T16:49:21.014Z,17.38
2018-09-27T16:50:59.350Z,17.40
2018-09-27T16:52:40.124Z,17.26
2018-09-27T16:54:32.536Z,17.08
2018-09-27T16:56:13.217Z,16.93
2018-09-27T16:57:52.245Z,16.75
2018-09-27T16:59:31.892Z,16.61
2018-09-27T17:02:59.540Z,16.33
2018-09-27T17:04:50.593Z,16.36
2018-09-27T17:06:32.461Z,16.25
2018-09-27T17:08:14.756Z,16.11
2018-09-27T17:09:53.622Z,15.90
2018-09-27T17:11:41.683Z,15.62
2018-09-27T17:13:30.817Z,15.50
2018-09-27T17:15:13.087Z,15.26
2018-09-27T17:16:54.141Z,15.02
2018-09-27T17:18:37.805Z,14.82
2018-09-27T17:20:24.164Z,14.66
2018-09-27T17:22:32.314Z,14.42
2018-09-27T17:24:20.377Z,14.25
2018-09-27T17:26:22.364Z,14.05
2018-09-27T17:29:56.192Z,13.93
2018-09-27T17:31:48.091Z,13.78
2018-09-27T17:33:35.517Z,13.66
2018-09-27T17:35:20.164Z,13.51
2018-09-27T17:37:05.417Z,13.45
2018-09-27T17:38:53.581Z,13.42
2018-09-27T17:40:33.852Z,13.37
2018-09-27T17:42:12.976Z,13.22
2018-09-27T17:43:50.310Z,13.14
2018-09-27T17:45:29.630Z,13.01
2018-09-27T17:47:15.904Z,12.84
2018-09-27T17:48:59.410Z,12.74
2018-09-27T17:50:41.898Z,12.66
2018-09-27T17:54:50.071Z,12.85
2018-09-27T17:56:33.286Z,12.78
2018-09-27T17:58:25.998Z,12.70
2018-09-27T18:00:11.276Z,12.61
2018-09-27T18:02:01.986Z,12.38
2018-09-27T18:03:43.261Z,12.16
2018-09-27T18:05:28.221Z,12.01
2018-09-27T18:08:55.326Z,11.72
2018-09-27T18:10:37.134Z,11.62
2018-09-27T18:12:21.585Z,11.46
2018-09-27T18:14:05.501Z,11.45
2018-09-27T18:15:47.328Z,11.42
2018-09-27T18:17:43.082Z,11.42
2018-09-27T18:19:35.099Z,11.47
2018-09-27T18:21:20.129Z,11.47
2018-09-27T18:23:06.593Z,11.37
2018-09-27T18:24:46.544Z,11.36
2018-09-27T18:26:29.815Z,11.37
2018-09-27T18:28:11.932Z,11.27
2018-09-27T18:29:59.663Z,11.27
2018-09-27T18:31:47.547Z,11.23
2018-09-27T18:33:31.716Z,11.14
2018-09-27T18:37:13.968Z,10.92
2018-09-27T18:38:53.491Z,10.86
2018-09-27T18:40:37.545Z,10.79
2018-09-27T18:42:21.757Z,10.73
2018-09-27T18:44:02.665Z,10.61
2018-09-27T18:45:44.629Z,10.49
2018-09-27T18:47:25.270Z,10.44
2018-09-27T18:49:07.592Z,10.41
2018-09-27T18:50:46.256Z,10.39
2018-09-27T18:52:30.719Z,10.46
2018-09-27T18:54:12.038Z,10.37
2018-09-27T18:55:54.208Z,10.34
2018-09-27T18:57:48.905Z,10.26
2018-09-27T18:59:35.481Z,10.38
2018-09-27T19:01:15.575Z,10.23
2018-09-27T19:02:57.455Z,10.32
2018-09-27T19:04:39.607Z,10.39
2018-09-27T19:06:24.333Z,10.36
2018-09-27T19:08:04.977Z,10.20
2018-09-27T19:09:51.674Z,10.15
2018-09-27T19:11:33.416Z,10.11
2018-09-27T19:13:16.386Z,10.01
2018-09-27T19:14:55.537Z,9.97
2018-09-27T19:16:35.344Z,9.96
2018-09-27T19:18:16.108Z,9.97
2018-09-27T19:19:57.572Z,9.87
2018-09-27T19:21:50.400Z,9.85
2018-09-27T19:23:40.436Z,9.85
2018-09-27T19:25:35.289Z,9.79
2018-09-27T19:27:29.199Z,9.64
2018-09-27T19:29:18.391Z,9.65
2018-09-27T19:31:03.734Z,9.55
2018-09-27T19:32:59.136Z,9.46
2018-09-27T19:34:39.868Z,9.37
2018-09-27T19:36:24.031Z,9.34
2018-09-27T19:38:16.240Z,9.42
2018-09-27T19:39:56.476Z,9.27
2018-09-27T19:41:40.688Z,9.18
2018-09-27T19:43:24.163Z,9.10
2018-09-27T19:45:03.763Z,9.04
2018-09-27T19:46:46.801Z,9.01
2018-09-27T19:48:26.281Z,8.92
2018-09-27T19:51:58.563Z,8.80
2018-09-27T19:53:41.355Z,8.78
2018-09-27T19:55:22.364Z,8.75
2018-09-27T19:57:00.418Z,8.77
2018-09-27T19:58:44.774Z,8.75
2018-09-27T20:00:29.931Z,8.71
2018-09-27T20:02:13.847Z,8.72
2018-09-27T20:03:50.796Z,8.73
2018-09-27T20:05:34.513Z,8.75
2018-09-27T20:07:13.616Z,8.74
2018-09-27T20:08:50.020Z,8.68
2018-09-27T20:10:30.525Z,8.61
2018-09-27T20:12:06.631Z,8.57
2018-09-27T20:13:46.572Z,8.61
2018-09-27T20:15:24.739Z,8.62
2018-09-27T20:17:02.677Z,8.68
2018-09-27T20:18:41.953Z,8.69
2018-09-27T20:20:22.474Z,8.59
2018-09-27T20:22:01.072Z,8.58
2018-09-27T20:23:39.756Z,8.55
2018-09-27T20:25:30.050Z,8.57
2018-09-27T20:27:09.592Z,8.52
2018-09-27T20:28:47.831Z,8.50
2018-09-27T20:30:28.242Z,8.49
2018-09-27T20:32:13.218Z,8.45
2018-09-27T20:33:52.286Z,8.50
2018-09-27T20:35:42.279Z,8.46
2018-09-27T20:39:14.679Z,8.39
2018-09-27T20:40:57.051Z,8.33
2018-09-27T20:42:39.089Z,8.33
2018-09-27T20:44:21.347Z,8.38
2018-09-27T20:46:03.741Z,8.45
2018-09-27T20:48:01.433Z,8.42
2018-09-27T20:49:44.795Z,8.38
2018-09-27T20:51:24.049Z,8.38
2018-09-27T20:53:05.796Z,8.34
2018-09-27T20:54:53.608Z,8.33
2018-09-27T20:56:37.335Z,8.32
2018-09-27T20:58:21.040Z,8.39
2018-09-27T21:00:03.261Z,8.30
2018-09-27T21:01:46.704Z,8.32
2018-09-27T21:03:23.673Z,8.26
2018-09-27T21:05:02.702Z,8.33
2018-09-27T21:06:45.420Z,8.44
2018-09-27T21:08:27.805Z,8.44
2018-09-27T21:10:06.526Z,8.41
2018-09-27T21:11:44.809Z,8.46
2018-09-27T21:13:33.106Z,8.46
2018-09-27T21:15:19.273Z,8.36
2018-09-27T21:16:57.168Z,8.31
2018-09-27T21:18:36.430Z,8.26
2018-09-27T21:20:25.215Z,8.22
2018-09-27T21:22:03.986Z,8.17
2018-09-27T21:23:49.094Z,8.12
2018-09-27T21:25:25.960Z,8.07
2018-09-27T21:27:17.753Z,8.01
2018-09-27T21:28:58.591Z,7.93
2018-09-27T21:30:37.494Z,7.88
2018-09-27T21:32:18.008Z,7.84
2018-09-27T21:33:57.500Z,7.83
2018-09-27T21:35:36.092Z,7.78
2018-09-27T21:37:13.005Z,7.69
2018-09-27T21:38:51.137Z,7.67
2018-09-27T21:40:32.751Z,7.62
2018-09-27T21:42:09.827Z,7.60
2018-09-27T21:43:49.832Z,7.56
2018-09-27T21:45:28.828Z,7.60
2018-09-27T21:47:09.835Z,7.66
2018-09-27T21:48:52.022Z,7.71
2018-09-27T21:50:28.008Z,7.74
2018-09-27T21:52:03.973Z,7.76
2018-09-27T21:53:39.339Z,7.77
2018-09-27T21:55:15.063Z,7.85
2018-09-27T21:56:52.278Z,7.91
2018-09-27T21:58:29.300Z,8.04
2018-09-27T22:00:09.051Z,7.98
2018-09-27T22:01:45.432Z,8.02
2018-09-27T22:03:24.738Z,8.05
2018-09-27T22:05:01.706Z,8.14
2018-09-27T22:06:39.714Z,8.10
2018-09-27T22:08:18.494Z,8.03
2018-09-27T22:10:00.204Z,7.96
2018-09-27T22:11:36.292Z,7.89
2018-09-27T22:13:12.668Z,7.94
2018-09-27T22:14:48.903Z,7.94
2018-09-27T22:16:29.413Z,7.90
2018-09-27T22:18:05.901Z,7.91
2018-09-27T22:19:42.508Z,7.84
2018-09-27T22:21:20.406Z,7.79
2018-09-27T22:22:56.839Z,7.72
2018-09-27T22:24:32.636Z,7.65
2018-09-27T22:26:08.749Z,7.61
2018-09-27T22:27:44.969Z,7.62
2018-09-27T22:29:22.248Z,7.67
2018-09-27T22:30:58.869Z,7.72
2018-09-27T22:32:35.463Z,7.75
2018-09-27T22:34:11.301Z,7.70
2018-09-27T22:35:46.562Z,7.79
2018-09-27T22:37:21.699Z,7.81
2018-09-27T22:38:57.008Z,7.74
2018-09-27T22:40:33.848Z,7.68
2018-09-27T22:42:09.938Z,7.60
2018-09-27T22:43:46.634Z,7.54
2018-09-27T22:47:27.115Z,7.46
2018-09-27T22:49:13.869Z,7.51
2018-09-27T22:51:02.572Z,7.49
2018-09-27T22:52:38.951Z,7.43
2018-09-27T22:54:14.691Z,7.35
2018-09-27T22:55:51.818Z,7.32
2018-09-27T22:57:36.531Z,7.32
2018-09-27T22:59:11.945Z,7.53
2018-09-27T23:00:47.119Z,7.60
2018-09-27T23:02:26.075Z,7.58
2018-09-27T23:04:03.591Z,7.53
2018-09-27T23:05:39.614Z,7.54
2018-09-27T23:07:15.371Z,7.51
2018-09-27T23:08:51.496Z,7.62
2018-09-27T23:10:27.461Z,7.60
2018-09-27T23:12:04.039Z,7.51
2018-09-27T23:13:40.303Z,7.42
2018-09-27T23:15:19.187Z,7.44
2018-09-27T23:16:55.191Z,7.39
2018-09-27T23:18:33.573Z,7.27
2018-09-27T23:20:14.679Z,7.22
2018-09-27T23:21:51.012Z,7.17
2018-09-27T23:23:27.234Z,7.08
2018-09-27T23:25:02.653Z,7.16
2018-09-27T23:26:38.938Z,7.15
2018-09-27T23:28:15.466Z,7.05
2018-09-27T23:29:50.968Z,6.99
2018-09-27T23:31:26.631Z,6.91
2018-09-27T23:33:02.889Z,6.93
2018-09-27T23:34:41.445Z,7.00
2018-09-27T23:36:17.050Z,7.01
2018-09-27T23:37:53.256Z,6.94
2018-09-27T23:39:28.897Z,6.91
2018-09-27T23:41:05.211Z,6.91
2018-09-27T23:42:41.053Z,6.93
2018-09-27T23:44:17.426Z,7.04
2018-09-27T23:45:52.524Z,7.07
2018-09-27T23:47:28.053Z,7.17
2018-09-27T23:49:04.503Z,7.24
2018-09-27T23:50:40.419Z,7.26
2018-09-27T23:52:15.837Z,7.26
2018-09-27T23:53:51.060Z,7.17
2018-09-27T23:55:26.856Z,7.12
2018-09-27T23:57:02.982Z,7.09
2018-09-27T23:58:38.157Z,7.02
